createdAt,value
2019-06-26T00:05:08.819Z,26.14
2019-06-26T00:10:14.729Z,26.14
2019-06-26T00:15:19.849Z,26.12
2019-06-26T00:20:24.854Z,25.99
2019-06-26T00:25:29.730Z,26.13
2019-06-26T00:30:34.612Z,26.02
2019-06-26T00:35:39.471Z,25.83
2019-06-26T00:40:44.448Z,25.87
2019-06-26T00:45:49.280Z,25.70
2019-06-26T00:50:54.144Z,25.77
2019-06-26T00:55:59.019Z,25.65
2019-06-26T01:01:04.568Z,25.52
2019-06-26T01:06:11.112Z,25.66
2019-06-26T01:11:16.011Z,25.56
2019-06-26T01:16:20.887Z,25.56
2019-06-26T01:21:26.113Z,25.53
2019-06-26T01:26:30.966Z,25.39
2019-06-26T01:31:35.829Z,25.34
2019-06-26T01:36:40.709Z,25.25
2019-06-26T01:41:45.552Z,25.21
2019-06-26T01:46:50.465Z,25.30
2019-06-26T01:51:55.362Z,25.29
2019-06-26T01:57:00.206Z,25.10
2019-06-26T02:02:05.290Z,25.09
2019-06-26T02:07:10.202Z,25.05
2019-06-26T02:12:15.034Z,24.93
2019-06-26T02:17:19.905Z,25.02
2019-06-26T02:22:24.791Z,25.09
2019-06-26T02:27:29.662Z,25.02
2019-06-26T02:32:34.711Z,25.02
2019-06-26T02:37:39.651Z,25.05
2019-06-26T02:42:44.575Z,25.03
2019-06-26T02:47:49.569Z,25.03
2019-06-26T02:52:54.418Z,24.90
2019-06-26T02:57:59.291Z,24.91
2019-06-26T03:03:04.770Z,24.86
2019-06-26T03:08:09.621Z,24.90
2019-06-26T03:13:14.578Z,24.82
2019-06-26T03:18:19.443Z,24.86
2019-06-26T03:23:24.844Z,24.81
2019-06-26T03:28:29.713Z,24.80
2019-06-26T03:33:34.600Z,24.68
2019-06-26T03:38:39.498Z,24.84
2019-06-26T03:43:44.478Z,24.83
2019-06-26T03:48:49.304Z,24.92
2019-06-26T03:53:54.175Z,24.79
2019-06-26T03:58:59.121Z,24.92
2019-06-26T04:04:04.631Z,24.83
2019-06-26T04:09:10.272Z,24.86
2019-06-26T04:14:15.132Z,24.86
2019-06-26T04:19:20.003Z,24.63
2019-06-26T04:24:24.873Z,24.55
2019-06-26T04:29:29.728Z,24.43
2019-06-26T04:34:34.660Z,24.38
2019-06-26T04:39:39.515Z,24.22
2019-06-26T04:44:44.389Z,24.43
2019-06-26T04:49:49.280Z,24.55
2019-06-26T04:54:54.132Z,24.49
2019-06-26T04:59:59.005Z,24.56
2019-06-26T05:05:07.734Z,24.65
2019-06-26T05:10:12.966Z,24.62
2019-06-26T05:15:17.973Z,24.71
2019-06-26T05:20:22.982Z,24.79
2019-06-26T05:25:27.860Z,24.95
2019-06-26T05:30:32.767Z,24.95
2019-06-26T05:35:37.605Z,25.07
2019-06-26T05:40:42.461Z,25.16
2019-06-26T05:45:47.595Z,25.25
2019-06-26T05:50:52.606Z,25.30
2019-06-26T05:55:57.531Z,25.42
2019-06-26T06:01:02.511Z,25.61
2019-06-26T06:06:07.451Z,25.66
2019-06-26T06:11:12.349Z,25.78
2019-06-26T06:16:17.269Z,25.96
2019-06-26T06:21:22.204Z,26.04
2019-06-26T06:26:27.242Z,26.17
2019-06-26T06:31:32.087Z,26.40
2019-06-26T06:36:36.977Z,26.48
2019-06-26T06:41:43.475Z,26.63
2019-06-26T06:47:02.744Z,26.78
2019-06-26T06:51:55.137Z,27.06
2019-06-26T06:56:59.999Z,27.25
2019-06-26T07:02:05.012Z,27.36
2019-06-26T07:07:09.891Z,27.56
2019-06-26T07:12:14.751Z,27.68
2019-06-26T07:17:21.226Z,27.92
2019-06-26T07:22:26.205Z,28.13
2019-06-26T07:27:31.122Z,28.33
2019-06-26T07:32:36.061Z,28.59
2019-06-26T07:37:40.995Z,28.65
2019-06-26T07:42:45.889Z,28.91
2019-06-26T07:47:50.734Z,29.08
2019-06-26T07:52:55.596Z,29.24
2019-06-26T07:58:00.758Z,29.24
2019-06-26T08:03:06.049Z,29.55
2019-06-26T08:08:14.581Z,29.85
2019-06-26T08:13:18.502Z,30.13
2019-06-26T08:18:27.388Z,30.24
2019-06-26T08:23:32.314Z,30.50
2019-06-26T08:28:37.906Z,30.76
2019-06-26T08:33:43.189Z,30.82
2019-06-26T08:38:48.712Z,31.11
2019-06-26T08:43:54.302Z,31.18
2019-06-26T08:48:59.814Z,31.28
2019-06-26T08:54:05.769Z,31.46
2019-06-26T08:59:10.880Z,31.71
2019-06-26T09:04:15.743Z,31.72
2019-06-26T09:09:20.635Z,32.00
2019-06-26T09:14:27.327Z,32.09
2019-06-26T09:19:32.171Z,32.21
2019-06-26T09:24:37.236Z,32.23
2019-06-26T09:29:42.214Z,32.41
2019-06-26T09:34:47.129Z,32.41
2019-06-26T09:39:52.028Z,32.83
2019-06-26T09:44:57.147Z,33.01
2019-06-26T09:50:02.235Z,33.17
2019-06-26T09:55:08.329Z,33.38
2019-06-26T10:00:23.809Z,33.34
2019-06-26T10:05:31.016Z,33.60
2019-06-26T10:10:35.849Z,33.63
2019-06-26T10:15:40.748Z,33.83
2019-06-26T10:20:45.630Z,33.79
2019-06-26T10:25:50.560Z,33.90
2019-06-26T10:30:55.445Z,34.06
2019-06-26T10:36:00.273Z,34.25
2019-06-26T10:41:05.348Z,34.17
2019-06-26T10:46:10.343Z,34.43
2019-06-26T10:51:15.217Z,34.43
2019-06-26T10:56:20.182Z,34.53
2019-06-26T11:01:25.064Z,34.56
2019-06-26T11:06:30.021Z,34.75
2019-06-26T11:11:34.941Z,34.91
2019-06-26T11:16:39.830Z,35.25
2019-06-26T11:21:45.662Z,35.43
2019-06-26T11:26:50.589Z,35.69
2019-06-26T11:31:55.765Z,35.69
2019-06-26T11:37:04.353Z,35.93
2019-06-26T11:42:07.310Z,36.49
2019-06-26T11:47:12.261Z,36.96
2019-06-26T11:52:17.162Z,38.28
2019-06-26T11:57:22.100Z,37.97
2019-06-26T12:02:27.456Z,38.88
2019-06-26T12:07:32.408Z,38.33
2019-06-26T12:12:37.443Z,38.58
2019-06-26T12:17:42.575Z,39.00
2019-06-26T12:22:47.844Z,39.66
2019-06-26T12:27:52.739Z,39.95
2019-06-26T12:33:03.343Z,37.62
2019-06-26T12:38:04.962Z,38.58
2019-06-26T12:43:09.846Z,41.15
2019-06-26T12:48:16.399Z,40.47
2019-06-26T12:53:21.470Z,41.37
2019-06-26T12:58:26.410Z,42.48
2019-06-26T13:03:31.268Z,40.46
2019-06-26T13:08:36.121Z,40.73
2019-06-26T13:13:40.971Z,40.84
2019-06-26T13:18:45.812Z,37.54
2019-06-26T13:23:50.685Z,37.39
2019-06-26T13:28:55.638Z,36.86
2019-06-26T13:34:00.476Z,36.84
2019-06-26T13:39:06.886Z,37.15
